Dunblane, United Kingdom
Current Conditions -  °F | °C
As of 1:50 PM on Wednesday 28 Jan 2015 (Local Time) from EGPH Reporting Station
Scattered Clouds Scattered Clouds  
Wind Chill: 27°   Ceiling: Unl
Heat Index: 37°   Visibility: 6mi
Dew Point: 32°   Wind: 18mph
Humidity: 81%   Direction: 270°W
Pressure: 29.18"   Gusts: NA
Location:  56.19°N, 3.96°W
Report Text: EGPH 281350Z 27016KT 9999 FEW010 SCT020 03/M00 Q0988
Loading
Personal Weather Stations






























Interactive Weather Map New forecast layout! Learn more

10-Day Weather Forecast

Advertisements
Track Severe Weather on mobile